Time;durP1;ratioP1;P1;durP2;ratioP2;P2;SDS_P1;SDS_P2;PMS_P1;PMS_P2;Temp;Humidity;BMP_temperature;BMP_pressure;BME280_temperature;BME280_humidity;BME280_pressure;Samples;Min_cycle;Max_cycle;Signal;HPM_P1;HPM_P2
2022/01/29 00:01:53;;;;;;;16.58;7.90;;;;;;;;;;5067790;28;20025;-79
2022/01/29 00:04:19;;;;;;;18.73;8.13;;;;;;;;;;5068798;28;20255;-79
2022/01/29 00:06:44;;;;;;;17.90;8.57;;;;;;;;;;5068523;28;20032;-79
2022/01/29 00:09:14;;;;;;;17.73;8.32;;;;;;;;;;5067422;28;20025;-79
2022/01/29 00:11:40;;;;;;;18.83;8.82;;;;;;;;;;5067043;28;20023;-80
2022/01/29 00:14:08;;;;;;;17.30;8.48;;;;;;;;;;5068461;28;20024;-79
2022/01/29 00:16:34;;;;;;;18.88;8.23;;;;;;;;;;5064832;28;20027;-78
2022/01/29 00:18:59;;;;;;;18.40;8.60;;;;;;;;;;5065913;28;20044;-79
2022/01/29 00:21:24;;;;;;;16.40;8.18;;;;;;;;;;5066494;28;20028;-79
2022/01/29 00:23:50;;;;;;;16.35;8.00;;;;;;;;;;5066572;28;20220;-79
2022/01/29 00:26:20;;;;;;;16.48;8.07;;;;;;;;;;5065494;28;20039;-79
2022/01/29 00:28:45;;;;;;;17.05;8.20;;;;;;;;;;5065818;28;20074;-78
2022/01/29 00:31:10;;;;;;;15.63;7.85;;;;;;;;;;5065088;28;20036;-78
2022/01/29 00:33:38;;;;;;;15.65;7.57;;;;;;;;;;5069004;28;20347;-78
2022/01/29 00:36:04;;;;;;;15.13;7.88;;;;;;;;;;5050815;28;20372;-79
2022/01/29 00:38:30;;;;;;;15.15;7.80;;;;;;;;;;5071590;28;20083;-79
2022/01/29 00:40:55;;;;;;;16.13;7.47;;;;;;;;;;5065309;28;20045;-79
2022/01/29 00:43:20;;;;;;;13.98;7.03;;;;;;;;;;5067629;28;20025;-79
2022/01/29 00:45:46;;;;;;;13.88;7.50;;;;;;;;;;5065646;28;20035;-78
2022/01/29 00:48:11;;;;;;;15.57;7.90;;;;;;;;;;5069407;28;20017;-78
2022/01/29 00:50:37;;;;;;;15.65;8.00;;;;;;;;;;5066437;28;20074;-79
2022/01/29 00:53:02;;;;;;;16.23;7.57;;;;;;;;;;5064451;28;20044;-79
2022/01/29 00:55:28;;;;;;;15.98;7.88;;;;;;;;;;5065382;28;20029;-78
2022/01/29 00:57:53;;;;;;;16.02;8.07;;;;;;;;;;5067928;28;20021;-79
2022/01/29 01:00:18;;;;;;;16.67;8.02;;;;;;;;;;5066836;28;20028;-79
2022/01/29 01:02:44;;;;;;;18.10;7.65;;;;;;;;;;5066681;28;20036;-79
2022/01/29 01:05:10;;;;;;;18.27;7.93;;;;;;;;;;5075917;28;20232;-79
2022/01/29 01:07:36;;;;;;;16.67;7.80;;;;;;;;;;5081484;28;20017;-79
2022/01/29 01:10:03;;;;;;;16.58;8.05;;;;;;;;;;5081544;28;20029;-79
2022/01/29 01:12:28;;;;;;;15.63;8.07;;;;;;;;;;5081461;28;20091;-79
2022/01/29 01:14:54;;;;;;;17.58;7.80;;;;;;;;;;5063162;28;20375;-79
2022/01/29 01:17:19;;;;;;;14.82;7.43;;;;;;;;;;5081351;28;20037;-79
2022/01/29 01:19:45;;;;;;;15.35;7.43;;;;;;;;;;5059659;28;20028;-79
2022/01/29 01:22:11;;;;;;;17.45;7.45;;;;;;;;;;5076600;28;20032;-79
2022/01/29 01:24:36;;;;;;;15.70;7.53;;;;;;;;;;5089958;28;20303;-78
2022/01/29 01:27:02;;;;;;;13.85;7.32;;;;;;;;;;5085419;28;20036;-80
2022/01/29 01:29:27;;;;;;;15.98;7.28;;;;;;;;;;5081496;28;20244;-78
2022/01/29 01:31:54;;;;;;;14.68;7.20;;;;;;;;;;5081931;28;20025;-79
2022/01/29 01:34:21;;;;;;;13.55;7.35;;;;;;;;;;5081804;28;20209;-80
2022/01/29 01:37:02;;;;;;;13.88;6.90;;;;;;;;;;5082172;28;20024;-78
2022/01/29 01:39:32;;;;;;;14.63;7.45;;;;;;;;;;5083523;28;20030;-79
2022/01/29 01:42:07;;;;;;;17.05;7.40;;;;;;;;;;5084905;28;20394;-80
2022/01/29 01:44:46;;;;;;;15.18;7.35;;;;;;;;;;5081646;28;20021;-80
2022/01/29 01:47:13;;;;;;;13.27;7.13;;;;;;;;;;5084362;28;20035;-80
2022/01/29 01:49:38;;;;;;;14.35;7.18;;;;;;;;;;5067521;28;20029;-79
2022/01/29 01:52:06;;;;;;;17.00;7.47;;;;;;;;;;5073007;28;20032;-79
2022/01/29 01:54:32;;;;;;;14.93;7.45;;;;;;;;;;5070811;28;20025;-80
2022/01/29 01:56:58;;;;;;;16.50;7.40;;;;;;;;;;5070329;28;20021;-79
2022/01/29 01:59:24;;;;;;;14.63;6.72;;;;;;;;;;5081485;28;20092;-79
2022/01/29 02:01:49;;;;;;;15.85;7.15;;;;;;;;;;5081296;28;20025;-79
2022/01/29 02:04:14;;;;;;;15.85;6.93;;;;;;;;;;5078593;28;20044;-80
2022/01/29 02:06:40;;;;;;;14.75;7.10;;;;;;;;;;5076943;28;20024;-79
2022/01/29 02:09:05;;;;;;;13.57;6.90;;;;;;;;;;5080733;28;20288;-79
2022/01/29 02:11:31;;;;;;;15.27;7.72;;;;;;;;;;5078943;28;20411;-78
2022/01/29 02:13:58;;;;;;;15.32;7.32;;;;;;;;;;5073833;28;20023;-78
2022/01/29 02:16:27;;;;;;;15.02;7.13;;;;;;;;;;5066441;28;20039;-78
2022/01/29 02:18:52;;;;;;;15.52;7.45;;;;;;;;;;5068593;28;20104;-78
2022/01/29 02:21:19;;;;;;;14.82;7.07;;;;;;;;;;5068986;28;20419;-78
2022/01/29 02:23:45;;;;;;;16.48;7.35;;;;;;;;;;5070413;28;20032;-78
2022/01/29 02:26:10;;;;;;;16.08;7.43;;;;;;;;;;5079979;28;20066;-78
2022/01/29 02:28:36;;;;;;;13.85;7.18;;;;;;;;;;5068253;28;20113;-79
2022/01/29 02:31:03;;;;;;;17.75;8.10;;;;;;;;;;5080697;28;20041;-78
2022/01/29 02:33:31;;;;;;;15.43;7.25;;;;;;;;;;5078082;28;20019;-79
2022/01/29 02:35:57;;;;;;;17.40;8.13;;;;;;;;;;5080770;28;20021;-79
2022/01/29 02:38:24;;;;;;;18.10;8.02;;;;;;;;;;5080985;28;20024;-79
2022/01/29 02:40:58;;;;;;;16.77;7.45;;;;;;;;;;5080673;28;20354;-78
2022/01/29 02:43:34;;;;;;;15.65;7.47;;;;;;;;;;5062948;28;20024;-79
2022/01/29 02:46:19;;;;;;;19.02;7.85;;;;;;;;;;5076716;28;20128;-78
2022/01/29 02:48:50;;;;;;;18.63;7.70;;;;;;;;;;5081010;28;20021;-78
2022/01/29 02:51:16;;;;;;;18.77;8.05;;;;;;;;;;5080565;28;20069;-79
2022/01/29 02:53:43;;;;;;;16.58;7.63;;;;;;;;;;5076521;28;20319;-79
2022/01/29 02:56:09;;;;;;;16.20;7.90;;;;;;;;;;5074065;28;20040;-78
2022/01/29 02:58:35;;;;;;;14.48;8.00;;;;;;;;;;5074408;28;20052;-77
2022/01/29 03:01:01;;;;;;;16.50;8.13;;;;;;;;;;5061594;28;20055;-78
2022/01/29 03:03:27;;;;;;;16.42;8.38;;;;;;;;;;5077402;28;20336;-79
2022/01/29 03:05:52;;;;;;;20.23;9.10;;;;;;;;;;5073063;28;20043;-78
2022/01/29 03:08:18;;;;;;;18.45;7.97;;;;;;;;;;5086489;28;20102;-78
2022/01/29 03:10:43;;;;;;;16.80;8.68;;;;;;;;;;5082551;28;20034;-78
2022/01/29 03:13:09;;;;;;;16.80;8.38;;;;;;;;;;5081685;28;20070;-78
2022/01/29 03:15:35;;;;;;;17.77;8.60;;;;;;;;;;5074109;28;20037;-78
2022/01/29 03:18:00;;;;;;;18.45;8.80;;;;;;;;;;5071327;28;20025;-78
2022/01/29 03:20:26;;;;;;;18.77;8.48;;;;;;;;;;5075050;28;20193;-78
2022/01/29 03:22:51;;;;;;;19.63;8.57;;;;;;;;;;5077411;28;20020;-78
2022/01/29 03:25:16;;;;;;;16.33;7.85;;;;;;;;;;5075018;28;20142;-78
2022/01/29 03:27:42;;;;;;;19.75;9.10;;;;;;;;;;5074055;28;20024;-78
2022/01/29 03:30:09;;;;;;;17.08;8.50;;;;;;;;;;5080095;28;20032;-77
2022/01/29 03:32:34;;;;;;;21.08;9.52;;;;;;;;;;5074769;28;20070;-78
2022/01/29 03:35:01;;;;;;;20.63;8.45;;;;;;;;;;5077144;28;20025;-77
2022/01/29 03:37:26;;;;;;;21.83;9.32;;;;;;;;;;5075507;28;20316;-78
2022/01/29 03:39:52;;;;;;;22.77;8.85;;;;;;;;;;5083712;28;20090;-77
2022/01/29 03:42:18;;;;;;;24.83;9.70;;;;;;;;;;5079671;28;20030;-78
2022/01/29 03:44:44;;;;;;;23.08;9.80;;;;;;;;;;5075812;28;20024;-78
2022/01/29 03:47:09;;;;;;;20.92;9.70;;;;;;;;;;5057146;28;20036;-77
2022/01/29 03:49:35;;;;;;;22.77;9.93;;;;;;;;;;5073782;28;20040;-77
2022/01/29 03:52:00;;;;;;;21.73;9.77;;;;;;;;;;5053606;28;20092;-77
2022/01/29 03:54:25;;;;;;;23.55;10.95;;;;;;;;;;5076087;28;20323;-77
2022/01/29 03:56:51;;;;;;;22.90;10.15;;;;;;;;;;5071338;28;20127;-77
2022/01/29 03:59:16;;;;;;;22.05;10.05;;;;;;;;;;5071951;28;20047;-77
2022/01/29 04:01:42;;;;;;;25.08;11.15;;;;;;;;;;5073981;28;20025;-78
2022/01/29 04:04:07;;;;;;;29.70;11.40;;;;;;;;;;5074446;28;20059;-78
2022/01/29 04:06:33;;;;;;;24.05;11.13;;;;;;;;;;5078824;28;20033;-78
2022/01/29 04:09:02;;;;;;;23.63;11.77;;;;;;;;;;5081458;28;20032;-78
2022/01/29 04:11:28;;;;;;;18.67;9.90;;;;;;;;;;5079169;28;20080;-78
2022/01/29 04:13:53;;;;;;;26.33;10.75;;;;;;;;;;5081914;28;20251;-78
2022/01/29 04:16:19;;;;;;;25.73;10.60;;;;;;;;;;5082848;28;20025;-77
2022/01/29 04:18:44;;;;;;;24.73;11.25;;;;;;;;;;5078380;28;20027;-77
2022/01/29 04:21:09;;;;;;;24.00;10.75;;;;;;;;;;5080372;28;20035;-78
2022/01/29 04:23:35;;;;;;;22.90;10.77;;;;;;;;;;5078253;28;20033;-78
2022/01/29 04:26:02;;;;;;;24.80;10.60;;;;;;;;;;5079770;28;20415;-77
2022/01/29 04:28:36;;;;;;;23.05;11.05;;;;;;;;;;5086456;28;20024;-78
2022/01/29 04:31:09;;;;;;;24.43;10.80;;;;;;;;;;5082719;28;20059;-78
2022/01/29 04:33:34;;;;;;;21.25;11.02;;;;;;;;;;5073125;28;20021;-77
2022/01/29 04:36:02;;;;;;;33.65;11.20;;;;;;;;;;5074828;28;20112;-78
2022/01/29 04:38:29;;;;;;;21.02;10.57;;;;;;;;;;5076916;28;20610;-77
2022/01/29 04:40:56;;;;;;;23.20;10.13;;;;;;;;;;5078624;28;20359;-77
2022/01/29 04:43:21;;;;;;;23.02;10.50;;;;;;;;;;5078067;28;20044;-78
2022/01/29 04:45:46;;;;;;;24.83;10.80;;;;;;;;;;5080443;28;20087;-78
2022/01/29 04:48:12;;;;;;;21.98;9.70;;;;;;;;;;5088513;28;20035;-77
2022/01/29 04:50:37;;;;;;;22.33;10.27;;;;;;;;;;5077867;28;20043;-77
2022/01/29 04:53:04;;;;;;;21.92;10.80;;;;;;;;;;5085324;28;20044;-77
2022/01/29 04:55:29;;;;;;;20.80;10.07;;;;;;;;;;5087633;28;20071;-77
2022/01/29 04:57:55;;;;;;;23.27;10.35;;;;;;;;;;5077420;28;20032;-78
2022/01/29 05:00:20;;;;;;;22.90;10.75;;;;;;;;;;5077795;28;20028;-78
2022/01/29 05:02:51;;;;;;;21.13;10.05;;;;;;;;;;5080877;28;20064;-78
2022/01/29 05:05:18;;;;;;;20.58;10.05;;;;;;;;;;5072831;28;20041;-78
2022/01/29 05:07:44;;;;;;;21.58;9.93;;;;;;;;;;5080388;28;20332;-78
2022/01/29 05:10:10;;;;;;;18.63;9.95;;;;;;;;;;5081085;28;20029;-78
2022/01/29 05:28:48;;;;;;;21.23;10.43;;;;;;;;;;5079758;28;20069;-79
2022/01/29 05:31:14;;;;;;;23.35;10.63;;;;;;;;;;5077963;28;20036;-78
2022/01/29 05:33:39;;;;;;;23.05;10.65;;;;;;;;;;5081578;28;20237;-78
2022/01/29 05:36:05;;;;;;;23.55;10.07;;;;;;;;;;5073354;28;20466;-78
2022/01/29 05:38:30;;;;;;;21.05;10.43;;;;;;;;;;5076549;28;20055;-78
2022/01/29 05:40:56;;;;;;;21.23;10.32;;;;;;;;;;5079594;28;20470;-78
2022/01/29 05:43:22;;;;;;;21.65;10.27;;;;;;;;;;5072977;28;20096;-78
2022/01/29 05:45:48;;;;;;;20.77;10.30;;;;;;;;;;5080734;28;20024;-78
2022/01/29 05:48:13;;;;;;;23.58;10.57;;;;;;;;;;5080812;28;20336;-78
2022/01/29 05:50:39;;;;;;;22.08;10.52;;;;;;;;;;5092168;28;20039;-78
2022/01/29 05:53:04;;;;;;;22.38;10.88;;;;;;;;;;5075301;28;20051;-78
2022/01/29 05:55:30;;;;;;;21.75;10.38;;;;;;;;;;5089990;28;20048;-78
2022/01/29 05:57:55;;;;;;;20.83;9.90;;;;;;;;;;5075916;28;20025;-78
2022/01/29 06:00:21;;;;;;;19.98;9.60;;;;;;;;;;5079274;28;20028;-78
2022/01/29 06:02:46;;;;;;;21.85;10.52;;;;;;;;;;5071723;28;20029;-79
2022/01/29 06:05:12;;;;;;;20.70;10.57;;;;;;;;;;5078213;28;20033;-79
2022/01/29 06:07:37;;;;;;;20.38;9.98;;;;;;;;;;5080853;28;20088;-79
2022/01/29 06:10:03;;;;;;;19.77;9.95;;;;;;;;;;5076602;28;20025;-79
2022/01/29 06:12:28;;;;;;;25.40;10.88;;;;;;;;;;5070848;28;20031;-77
2022/01/29 06:14:54;;;;;;;21.55;10.65;;;;;;;;;;5073619;28;20051;-77
2022/01/29 06:17:19;;;;;;;22.42;10.25;;;;;;;;;;5071897;28;20027;-77
2022/01/29 06:19:45;;;;;;;20.38;9.60;;;;;;;;;;5081152;28;20095;-77
2022/01/29 06:22:13;;;;;;;20.50;10.38;;;;;;;;;;5079309;28;20028;-77
2022/01/29 06:24:38;;;;;;;23.27;10.65;;;;;;;;;;5079601;28;20041;-77
2022/01/29 06:27:04;;;;;;;19.60;9.48;;;;;;;;;;5073029;28;20116;-77
2022/01/29 06:29:29;;;;;;;21.65;10.38;;;;;;;;;;5073796;28;20099;-77
2022/01/29 06:31:55;;;;;;;19.45;10.02;;;;;;;;;;5076732;28;20092;-77
2022/01/29 06:34:20;;;;;;;24.77;10.63;;;;;;;;;;5078907;28;20024;-77
2022/01/29 06:36:45;;;;;;;23.23;10.55;;;;;;;;;;5071996;28;20138;-77
2022/01/29 06:39:11;;;;;;;20.60;9.55;;;;;;;;;;5078811;28;20032;-77
2022/01/29 06:41:36;;;;;;;23.08;10.32;;;;;;;;;;5068341;28;20216;-77
2022/01/29 06:44:02;;;;;;;21.25;10.02;;;;;;;;;;5070255;28;20028;-78
2022/01/29 06:46:27;;;;;;;23.88;11.10;;;;;;;;;;5067254;28;20309;-76
2022/01/29 06:48:53;;;;;;;22.63;10.18;;;;;;;;;;5066838;28;20021;-77
2022/01/29 06:51:18;;;;;;;22.55;9.70;;;;;;;;;;5070209;28;20033;-77
2022/01/29 06:53:44;;;;;;;20.27;9.85;;;;;;;;;;5064488;28;20078;-78
2022/01/29 06:56:09;;;;;;;22.13;10.13;;;;;;;;;;5064434;28;20040;-77
2022/01/29 06:58:35;;;;;;;22.05;10.35;;;;;;;;;;5067006;28;20033;-77
2022/01/29 07:01:02;;;;;;;20.83;10.27;;;;;;;;;;5064868;28;20050;-77
2022/01/29 07:03:27;;;;;;;23.77;10.18;;;;;;;;;;5064550;28;20040;-78
2022/01/29 07:05:52;;;;;;;22.38;10.48;;;;;;;;;;5065985;28;20016;-78
2022/01/29 07:08:18;;;;;;;18.13;9.27;;;;;;;;;;5067964;28;20211;-77
2022/01/29 07:10:45;;;;;;;21.83;10.65;;;;;;;;;;5066359;28;20377;-77
2022/01/29 07:13:10;;;;;;;22.05;10.85;;;;;;;;;;5086935;28;20230;-77
2022/01/29 07:15:36;;;;;;;21.45;10.02;;;;;;;;;;5079759;28;20128;-77
2022/01/29 07:18:01;;;;;;;20.83;10.30;;;;;;;;;;5057525;28;20103;-77
2022/01/29 07:20:26;;;;;;;24.70;10.05;;;;;;;;;;5076071;28;20032;-77
2022/01/29 07:22:52;;;;;;;21.75;10.10;;;;;;;;;;5074925;28;20028;-76
2022/01/29 07:25:17;;;;;;;21.25;10.32;;;;;;;;;;5078931;28;20027;-77
2022/01/29 07:27:42;;;;;;;19.10;9.30;;;;;;;;;;5067736;28;20060;-78
2022/01/29 07:30:08;;;;;;;20.25;9.77;;;;;;;;;;5072760;28;20033;-77
2022/01/29 07:32:34;;;;;;;20.55;9.95;;;;;;;;;;5077378;28;20025;-77
2022/01/29 07:34:59;;;;;;;23.20;10.40;;;;;;;;;;5073766;28;20055;-77
2022/01/29 07:37:24;;;;;;;21.38;10.52;;;;;;;;;;5086297;28;20024;-77
2022/01/29 07:39:50;;;;;;;20.75;10.43;;;;;;;;;;5078621;28;20025;-78
2022/01/29 07:42:15;;;;;;;21.27;10.45;;;;;;;;;;5080850;28;20035;-76
2022/01/29 07:44:41;;;;;;;21.52;9.77;;;;;;;;;;5066787;28;20030;-77
2022/01/29 07:47:06;;;;;;;23.63;10.13;;;;;;;;;;5085975;28;20035;-77
2022/01/29 07:49:32;;;;;;;23.27;10.98;;;;;;;;;;5089058;28;20021;-78
2022/01/29 07:51:57;;;;;;;18.63;9.80;;;;;;;;;;5079448;28;20069;-78
2022/01/29 07:54:22;;;;;;;24.23;9.75;;;;;;;;;;5080718;28;20020;-80
2022/01/29 07:56:48;;;;;;;18.15;9.48;;;;;;;;;;5088815;28;20024;-78
2022/01/29 07:59:13;;;;;;;21.23;9.73;;;;;;;;;;5081194;28;20024;-78
2022/01/29 08:01:39;;;;;;;20.20;9.90;;;;;;;;;;5081714;28;20028;-78
2022/01/29 08:04:04;;;;;;;21.38;9.70;;;;;;;;;;5086234;28;20044;-78
2022/01/29 08:06:29;;;;;;;20.20;9.52;;;;;;;;;;5071202;28;20092;-79
2022/01/29 08:08:56;;;;;;;20.67;9.60;;;;;;;;;;5071464;28;20029;-79
2022/01/29 08:11:22;;;;;;;18.85;9.57;;;;;;;;;;5079015;28;20032;-79
2022/01/29 08:13:48;;;;;;;16.35;8.98;;;;;;;;;;5076438;28;20021;-79
2022/01/29 08:16:14;;;;;;;16.90;8.75;;;;;;;;;;5077478;28;20036;-78
2022/01/29 08:18:42;;;;;;;16.77;8.68;;;;;;;;;;5085153;28;20227;-78
2022/01/29 08:21:08;;;;;;;16.50;9.23;;;;;;;;;;5073511;28;20021;-79
2022/01/29 08:23:33;;;;;;;16.70;8.65;;;;;;;;;;5080222;28;20212;-78
2022/01/29 08:25:59;;;;;;;16.38;9.40;;;;;;;;;;5083337;28;20095;-79
2022/01/29 08:28:24;;;;;;;18.38;8.75;;;;;;;;;;5073118;28;20029;-77
2022/01/29 08:30:50;;;;;;;18.58;9.38;;;;;;;;;;5083326;28;20050;-79
2022/01/29 08:33:18;;;;;;;16.38;9.00;;;;;;;;;;5076711;28;20038;-79
2022/01/29 08:35:46;;;;;;;16.52;8.95;;;;;;;;;;5079311;28;20277;-79
2022/01/29 08:38:11;;;;;;;16.65;8.70;;;;;;;;;;5077484;28;20087;-78
2022/01/29 08:40:40;;;;;;;15.35;8.80;;;;;;;;;;5076946;28;20178;-78
2022/01/29 08:43:05;;;;;;;17.73;8.93;;;;;;;;;;5081763;28;20035;-79
2022/01/29 08:45:31;;;;;;;16.58;8.82;;;;;;;;;;5076302;28;20048;-78
2022/01/29 08:47:56;;;;;;;20.55;8.63;;;;;;;;;;5076039;28;20025;-79
2022/01/29 08:50:22;;;;;;;18.15;8.60;;;;;;;;;;5080859;28;20039;-79
2022/01/29 08:52:47;;;;;;;15.45;8.38;;;;;;;;;;5076464;28;20087;-79
2022/01/29 08:55:13;;;;;;;15.50;8.63;;;;;;;;;;5075677;28;20028;-79
2022/01/29 08:57:39;;;;;;;14.85;7.57;;;;;;;;;;5080310;28;20052;-79
2022/01/29 09:00:07;;;;;;;16.67;8.80;;;;;;;;;;5079271;28;20028;-80
2022/01/29 09:02:32;;;;;;;15.23;8.30;;;;;;;;;;5074431;28;20025;-79
2022/01/29 09:04:58;;;;;;;14.13;7.78;;;;;;;;;;5082327;28;20078;-79
2022/01/29 09:07:24;;;;;;;14.57;7.35;;;;;;;;;;5076085;28;20423;-79
2022/01/29 09:09:49;;;;;;;12.82;7.20;;;;;;;;;;5080533;28;20036;-79
2022/01/29 09:12:14;;;;;;;16.88;7.57;;;;;;;;;;5074298;28;20048;-79
2022/01/29 09:14:40;;;;;;;12.20;6.72;;;;;;;;;;5082664;28;20080;-79
2022/01/29 09:17:06;;;;;;;13.25;7.05;;;;;;;;;;5076132;28;20033;-78
2022/01/29 09:19:32;;;;;;;12.07;6.43;;;;;;;;;;5077445;28;20035;-79
2022/01/29 09:21:58;;;;;;;11.77;6.70;;;;;;;;;;5077625;28;20230;-79
2022/01/29 09:24:23;;;;;;;12.02;6.93;;;;;;;;;;5076825;28;20336;-79
2022/01/29 09:26:48;;;;;;;11.30;5.97;;;;;;;;;;5079954;28;20025;-79
2022/01/29 09:29:14;;;;;;;11.77;6.57;;;;;;;;;;5074802;28;20013;-79
2022/01/29 09:31:39;;;;;;;11.55;6.00;;;;;;;;;;5073291;28;20336;-79
2022/01/29 09:34:05;;;;;;;9.50;5.70;;;;;;;;;;5080474;28;20316;-79
2022/01/29 09:36:30;;;;;;;10.15;6.05;;;;;;;;;;5082721;28;20313;-79
2022/01/29 09:38:56;;;;;;;9.93;6.50;;;;;;;;;;5079696;28;20024;-79
2022/01/29 09:41:24;;;;;;;10.10;5.93;;;;;;;;;;5071866;28;20028;-79
2022/01/29 09:43:52;;;;;;;9.38;5.60;;;;;;;;;;5079756;28;20025;-78
2022/01/29 09:46:17;;;;;;;10.93;5.60;;;;;;;;;;5063481;28;20339;-77
2022/01/29 09:48:44;;;;;;;9.65;6.10;;;;;;;;;;5077342;28;20029;-74
2022/01/29 09:51:13;;;;;;;9.40;5.30;;;;;;;;;;5077567;28;20036;-76
2022/01/29 09:53:43;;;;;;;10.07;5.88;;;;;;;;;;5071913;28;20033;-78
2022/01/29 09:56:15;;;;;;;11.25;5.90;;;;;;;;;;5073749;28;20048;-79
2022/01/29 09:58:42;;;;;;;11.27;5.38;;;;;;;;;;5086468;28;20059;-80
2022/01/29 10:01:08;;;;;;;9.65;5.63;;;;;;;;;;5074331;28;20127;-77
2022/01/29 10:03:34;;;;;;;11.60;5.28;;;;;;;;;;5068488;28;20074;-78
2022/01/29 10:06:03;;;;;;;10.25;5.82;;;;;;;;;;5074451;28;20103;-78
2022/01/29 10:08:29;;;;;;;12.65;5.68;;;;;;;;;;5071851;28;20382;-81
2022/01/29 10:10:59;;;;;;;10.43;5.65;;;;;;;;;;5066389;28;20324;-79
2022/01/29 10:13:24;;;;;;;9.57;5.65;;;;;;;;;;5067571;28;20028;-77
2022/01/29 10:15:51;;;;;;;9.90;5.72;;;;;;;;;;5067244;28;20033;-78
2022/01/29 10:18:23;;;;;;;9.45;5.07;;;;;;;;;;5065563;28;20044;-78
2022/01/29 10:20:50;;;;;;;11.75;5.20;;;;;;;;;;5065796;28;20052;-80
2022/01/29 10:23:16;;;;;;;10.65;5.25;;;;;;;;;;5081574;28;20025;-80
2022/01/29 10:25:44;;;;;;;9.80;5.05;;;;;;;;;;5075938;28;20024;-81
2022/01/29 10:28:12;;;;;;;9.90;5.60;;;;;;;;;;5085273;28;20339;-80
2022/01/29 10:30:59;;;;;;;9.05;4.93;;;;;;;;;;5090253;28;20051;-81
2022/01/29 10:33:40;;;;;;;9.48;5.28;;;;;;;;;;5056806;28;20037;-80
2022/01/29 10:36:14;;;;;;;8.55;4.68;;;;;;;;;;5078422;28;20116;-79
2022/01/29 10:38:40;;;;;;;8.50;4.95;;;;;;;;;;5077672;28;20038;-80
2022/01/29 10:41:09;;;;;;;10.02;5.35;;;;;;;;;;5062774;28;20102;-80
2022/01/29 10:43:35;;;;;;;8.70;5.03;;;;;;;;;;5087199;28;20046;-80
2022/01/29 10:46:01;;;;;;;13.13;5.28;;;;;;;;;;5078270;28;20063;-81
2022/01/29 10:48:43;;;;;;;8.27;4.78;;;;;;;;;;5081890;28;20212;-80
2022/01/29 10:51:13;;;;;;;9.98;5.03;;;;;;;;;;5080589;28;20032;-80
2022/01/29 10:53:38;;;;;;;8.63;4.60;;;;;;;;;;5080772;28;20031;-80
2022/01/29 10:56:04;;;;;;;13.65;7.80;;;;;;;;;;5083807;28;20025;-80
2022/01/29 10:58:30;;;;;;;10.95;6.20;;;;;;;;;;5079671;28;20264;-80
2022/01/29 11:01:19;;;;;;;32.97;19.02;;;;;;;;;;5077289;28;20085;-80
2022/01/29 11:03:45;;;;;;;16.75;9.63;;;;;;;;;;5044815;28;20087;-81
2022/01/29 11:06:13;;;;;;;21.58;12.70;;;;;;;;;;5064791;28;20204;-81
2022/01/29 11:08:39;;;;;;;18.35;9.40;;;;;;;;;;5060402;28;20028;-80
2022/01/29 11:11:08;;;;;;;21.77;11.90;;;;;;;;;;5058296;28;20056;-80
2022/01/29 11:13:35;;;;;;;11.73;7.60;;;;;;;;;;5063454;28;20082;-80
2022/01/29 11:16:02;;;;;;;9.65;5.45;;;;;;;;;;5070686;28;20300;-82
2022/01/29 11:18:28;;;;;;;10.48;6.40;;;;;;;;;;5074667;28;20020;-81
2022/01/29 11:20:55;;;;;;;9.20;5.40;;;;;;;;;;5066398;28;20180;-81
2022/01/29 11:23:22;;;;;;;11.05;5.40;;;;;;;;;;5063633;28;20025;-81
2022/01/29 11:25:51;;;;;;;8.85;5.18;;;;;;;;;;5068011;28;20047;-80
2022/01/29 11:28:17;;;;;;;10.60;4.60;;;;;;;;;;5064027;28;20047;-80
2022/01/29 11:30:46;;;;;;;8.02;4.70;;;;;;;;;;5065256;28;20321;-80
2022/01/29 11:33:12;;;;;;;7.90;4.53;;;;;;;;;;5064189;28;20029;-81
2022/01/29 11:35:55;;;;;;;8.82;4.55;;;;;;;;;;5063749;28;20067;-81
2022/01/29 11:38:46;;;;;;;9.40;5.28;;;;;;;;;;5055784;28;20033;-81
2022/01/29 11:41:12;;;;;;;7.97;4.60;;;;;;;;;;5066318;28;20098;-81
2022/01/29 11:43:38;;;;;;;9.27;5.45;;;;;;;;;;5063665;28;20208;-81
2022/01/29 11:46:06;;;;;;;8.65;4.15;;;;;;;;;;5063561;28;20024;-81
2022/01/29 11:48:34;;;;;;;8.65;4.78;;;;;;;;;;5060581;28;20063;-81
2022/01/29 11:51:02;;;;;;;12.18;5.45;;;;;;;;;;5056708;28;20051;-81
2022/01/29 11:53:50;;;;;;;10.63;5.30;;;;;;;;;;5060111;28;20033;-81
2022/01/29 11:56:28;;;;;;;11.80;5.07;;;;;;;;;;5069340;28;20329;-81
2022/01/29 11:59:28;;;;;;;9.40;4.28;;;;;;;;;;5053538;28;20036;-81
2022/01/29 12:01:58;;;;;;;8.43;4.15;;;;;;;;;;5067704;28;20028;-81
2022/01/29 12:04:44;;;;;;;6.85;3.92;;;;;;;;;;5081526;28;20041;-80
2022/01/29 12:07:28;;;;;;;5.90;3.30;;;;;;;;;;5077795;28;20031;-80
2022/01/29 12:10:05;;;;;;;6.60;3.60;;;;;;;;;;5086472;28;20078;-80
2022/01/29 12:12:32;;;;;;;7.57;4.53;;;;;;;;;;5082759;28;20020;-81
2022/01/29 12:15:18;;;;;;;9.88;5.22;;;;;;;;;;5083633;28;20024;-80
2022/01/29 12:17:50;;;;;;;7.82;4.68;;;;;;;;;;5089714;28;20021;-80
2022/01/29 12:20:21;;;;;;;7.60;4.75;;;;;;;;;;5082950;28;20024;-80
2022/01/29 12:22:48;;;;;;;7.63;4.38;;;;;;;;;;5076353;28;20032;-80
2022/01/29 12:25:16;;;;;;;11.30;5.30;;;;;;;;;;5082706;28;20043;-81
2022/01/29 12:28:01;;;;;;;7.88;4.18;;;;;;;;;;5082719;28;20024;-81
2022/01/29 12:30:38;;;;;;;8.65;5.13;;;;;;;;;;5075191;28;20055;-81
2022/01/29 12:33:06;;;;;;;7.97;4.57;;;;;;;;;;5082908;28;20032;-81
2022/01/29 12:35:39;;;;;;;6.38;4.18;;;;;;;;;;5082555;28;20031;-81
2022/01/29 12:38:07;;;;;;;7.13;4.55;;;;;;;;;;5086358;28;20024;-80
2022/01/29 12:40:38;;;;;;;8.48;4.63;;;;;;;;;;5084592;28;20022;-81
2022/01/29 12:43:18;;;;;;;7.32;4.13;;;;;;;;;;5082559;28;20024;-80
2022/01/29 12:45:44;;;;;;;10.30;6.18;;;;;;;;;;5076331;28;20320;-81
2022/01/29 12:48:11;;;;;;;9.48;5.10;;;;;;;;;;5082704;28;20024;-81
2022/01/29 12:50:38;;;;;;;6.13;4.03;;;;;;;;;;5083045;28;20133;-81
2022/01/29 12:53:13;;;;;;;7.10;4.20;;;;;;;;;;5082274;28;20165;-81
2022/01/29 12:55:38;;;;;;;12.25;7.80;;;;;;;;;;5095432;28;20087;-80
2022/01/29 12:58:04;;;;;;;7.93;4.43;;;;;;;;;;5085187;28;20320;-80
2022/01/29 13:00:30;;;;;;;9.52;5.00;;;;;;;;;;5073368;28;20036;-80
2022/01/29 13:03:08;;;;;;;9.85;5.25;;;;;;;;;;5077679;28;20122;-80
2022/01/29 13:05:44;;;;;;;9.98;4.70;;;;;;;;;;5077912;28;20024;-80
2022/01/29 13:08:11;;;;;;;9.88;4.65;;;;;;;;;;5079662;28;20157;-80
2022/01/29 13:10:37;;;;;;;10.65;5.40;;;;;;;;;;5075478;28;20040;-81
2022/01/29 13:13:02;;;;;;;9.05;5.28;;;;;;;;;;5073650;28;20020;-80
2022/01/29 13:15:37;;;;;;;10.60;5.50;;;;;;;;;;5082106;28;20020;-80
2022/01/29 13:18:03;;;;;;;9.63;6.10;;;;;;;;;;5082019;28;20025;-80
2022/01/29 13:20:28;;;;;;;9.52;5.50;;;;;;;;;;5078579;28;20282;-81
2022/01/29 13:22:54;;;;;;;9.55;4.93;;;;;;;;;;5081472;28;20208;-80
2022/01/29 13:25:26;;;;;;;10.55;5.40;;;;;;;;;;5081989;28;20362;-80
2022/01/29 13:28:03;;;;;;;9.18;5.00;;;;;;;;;;5082255;28;20029;-81
2022/01/29 13:30:31;;;;;;;7.47;4.63;;;;;;;;;;5077152;28;20078;-80
2022/01/29 13:33:16;;;;;;;11.18;6.07;;;;;;;;;;5079429;28;20029;-81
2022/01/29 13:35:53;;;;;;;8.75;5.45;;;;;;;;;;5075892;28;20309;-80
2022/01/29 13:38:33;;;;;;;7.50;4.60;;;;;;;;;;5088713;28;20259;-80
2022/01/29 13:41:02;;;;;;;7.57;4.80;;;;;;;;;;5079115;28;20021;-80
2022/01/29 13:43:32;;;;;;;7.45;4.80;;;;;;;;;;5082614;28;20404;-80
2022/01/29 13:46:07;;;;;;;7.90;4.93;;;;;;;;;;5081870;28;20032;-80
2022/01/29 13:48:52;;;;;;;8.13;4.45;;;;;;;;;;5087753;28;20039;-80
2022/01/29 13:51:28;;;;;;;10.00;5.80;;;;;;;;;;5086050;28;20099;-80
2022/01/29 13:53:55;;;;;;;9.77;5.93;;;;;;;;;;5081433;28;20250;-80
2022/01/29 13:56:22;;;;;;;7.50;5.10;;;;;;;;;;5081214;28;20039;-79
2022/01/29 13:58:57;;;;;;;11.07;6.72;;;;;;;;;;5081209;28;20032;-80
2022/01/29 14:02:01;;;;;;;9.15;6.22;;;;;;;;;;5075248;28;20220;-80
2022/01/29 14:04:33;;;;;;;9.43;6.10;;;;;;;;;;5064703;28;20082;-80
2022/01/29 14:07:09;;;;;;;9.23;5.95;;;;;;;;;;5080716;28;20032;-80
2022/01/29 14:09:37;;;;;;;9.65;4.88;;;;;;;;;;5087527;28;20380;-80
2022/01/29 14:12:08;;;;;;;15.50;6.43;;;;;;;;;;5074874;28;20028;-80
2022/01/29 14:14:35;;;;;;;36.00;13.52;;;;;;;;;;5063855;28;20331;-80
2022/01/29 14:17:06;;;;;;;8.82;4.93;;;;;;;;;;5080716;28;20020;-80
2022/01/29 14:19:33;;;;;;;19.83;9.02;;;;;;;;;;5069763;28;20066;-80
2022/01/29 14:21:59;;;;;;;48.15;19.02;;;;;;;;;;5062823;28;20071;-80
2022/01/29 14:24:26;;;;;;;18.08;8.15;;;;;;;;;;5076656;28;20036;-80
2022/01/29 14:26:52;;;;;;;9.75;5.70;;;;;;;;;;5062896;28;20066;-80
2022/01/29 14:29:17;;;;;;;15.15;7.65;;;;;;;;;;5080684;28;20032;-80
2022/01/29 14:31:43;;;;;;;14.82;8.30;;;;;;;;;;5079055;28;20027;-80
2022/01/29 14:34:09;;;;;;;14.35;8.40;;;;;;;;;;5076826;28;20031;-80
2022/01/29 14:36:36;;;;;;;23.77;14.10;;;;;;;;;;5070491;28;20033;-80
2022/01/29 14:39:04;;;;;;;9.25;5.80;;;;;;;;;;5077106;28;20035;-80
2022/01/29 14:41:29;;;;;;;15.43;9.85;;;;;;;;;;5068767;28;20237;-80
2022/01/29 14:43:54;;;;;;;14.55;8.93;;;;;;;;;;5058854;28;20482;-80
2022/01/29 14:46:20;;;;;;;9.07;5.28;;;;;;;;;;5078534;28;20330;-80
2022/01/29 14:48:48;;;;;;;12.20;7.50;;;;;;;;;;5075363;28;20134;-80
2022/01/29 14:51:15;;;;;;;7.25;4.65;;;;;;;;;;5056147;28;20337;-80